Big Bear Station Historical Data
Daily Summary for October 29, 2017 Units:  English    Metric   Both
Next Day »
Daily Weekly Monthly Yearly Custom
  High: Low: Average:
Temperature: 68.7 °F 36.3 °F 49.2 °F
Dew Point: 35.8 °F 25.4 °F 31 °F
Humidity: 87% 24% 54%
Wind Speed: 6.8mph 0.0mph 0.9mph
Wind Gust: -999.0mph - -
Wind- - West
Pressure: 23.55 in 23.43 in -
Precipitation: 0.00 in    
Historical Graphs
 
 
Tabular Data for October 29, 2017
Time Temperature Dew Point Pressure Wind Wind Speed Wind Gust Humidity Rainfall Rate (Hourly)
00:05 41.0 °F 28.6 °F 23.55 in Calm   -999.0 mph 61% 0 in
00:20 40.6 °F 28.6 °F 23.55 in Calm   -999.0 mph 62% 0 in
00:35 40.5 °F 26.9 °F 23.55 in Calm   -999.0 mph 58% 0 in
00:51 40.5 °F 27.7 °F 23.55 in Calm   -999.0 mph 60% 0 in
01:06 39.7 °F 30.0 °F 23.55 in Calm   -999.0 mph 68% 0 in
01:21 39.6 °F 30.6 °F 23.54 in Calm   -999.0 mph 70% 0 in
01:36 39.2 °F 30.9 °F 23.54 in Calm   -999.0 mph 72% 0 in
01:51 39.4 °F 31.1 °F 23.54 in Calm   -999.0 mph 72% 0 in
02:07 39.0 °F 31.1 °F 23.54 in Calm   -999.0 mph 73% 0 in
02:22 38.5 °F 29.6 °F 23.54 in Calm   -999.0 mph 70% 0 in
02:37 38.8 °F 30.5 °F 23.54 in Calm   -999.0 mph 72% 0 in
02:52 38.5 °F 31.6 °F 23.54 in Calm   -999.0 mph 76% 0 in
03:07 38.1 °F 31.8 °F 23.53 in Calm   -999.0 mph 78% 0 in
03:23 37.9 °F 31.7 °F 23.53 in Calm   -999.0 mph 78% 0 in
03:38 37.8 °F 31.9 °F 23.53 in Calm   -999.0 mph 79% 0 in
03:53 37.8 °F 32.8 °F 23.52 in Calm   -999.0 mph 82% 0 in
04:08 37.6 °F 32.6 °F 23.52 in Calm   -999.0 mph 82% 0 in
04:23 37.4 °F 32.1 °F 23.52 in Calm   -999.0 mph 81% 0 in
04:39 37.2 °F 31.6 °F 23.52 in Calm   -999.0 mph 80% 0 in
04:54 37.0 °F 31.7 °F 23.52 in Calm   -999.0 mph 81% 0 in
05:09 37.2 °F 32.2 °F 23.52 in Calm   -999.0 mph 82% 0 in
05:24 37.0 °F 32.6 °F 23.52 in Calm   -999.0 mph 84% 0 in
05:40 36.9 °F 32.5 °F 23.52 in Calm   -999.0 mph 84% 0 in
05:55 36.7 °F 32.3 °F 23.52 in Calm   -999.0 mph 84% 0 in
06:10 36.9 °F 32.8 °F 23.52 in Calm   -999.0 mph 85% 0 in
06:25 36.7 °F 32.9 °F 23.52 in Calm   -999.0 mph 86% 0 in
06:40 36.5 °F 32.4 °F 23.53 in Calm   -999.0 mph 85% 0 in
06:56 36.3 °F 31.9 °F 23.52 in Calm   -999.0 mph 84% 0 in
07:11 36.5 °F 32.7 °F 23.52 in Calm   -999.0 mph 86% 0 in
07:27 36.5 °F 32.7 °F 23.53 in Calm   -999.0 mph 86% 0 in
07:42 36.3 °F 32.5 °F 23.53 in Calm   -999.0 mph 86% 0 in
07:58 36.3 °F 32.8 °F 23.53 in Calm   -999.0 mph 87% 0 in
08:13 36.5 °F 33.0 °F 23.53 in Calm   -999.0 mph 87% 0 in
08:28 37.6 °F 33.5 °F 23.53 in Calm   -999.0 mph 85% 0 in
08:43 38.3 °F 34.2 °F 23.53 in Calm   -999.0 mph 85% 0 in
09:14 40.1 °F 35.4 °F 23.53 in Calm   -999.0 mph 83% 0 in
09:29 41.7 °F 34.4 °F 23.53 in Calm   -999.0 mph 75% 0 in
09:44 44.8 °F 35.2 °F 23.52 in Calm   -999.0 mph 69% 0 in
09:59 48.6 °F 35.8 °F 23.52 in Calm   -999.0 mph 61% 0 in
10:15 53.4 °F 31.5 °F 23.52 in Calm   -999.0 mph 43% 0 in
10:30 58.8 °F 30.5 °F 23.52 in South 1.7 mph -999.0 mph 34% 0 in
10:45 62.4 °F 30.5 °F 23.52 in WNW 1.1 mph -999.0 mph 30% 0 in
11:00 63.3 °F 31.3 °F 23.52 in WNW 3.7 mph -999.0 mph 30% 0 in
11:15 64.4 °F 31.4 °F 23.51 in NW 3.7 mph -999.0 mph 29% 0 in
11:31 65.7 °F 31.7 °F 23.52 in NW 4.2 mph -999.0 mph 28% 0 in
11:46 66.6 °F 31.6 °F 23.51 in SSE 4.7 mph -999.0 mph 27% 0 in
12:01 66.7 °F 29.8 °F 23.51 in WNW 2.7 mph -999.0 mph 25% 0 in
12:16 67.6 °F 30.5 °F 23.51 in East 1.1 mph -999.0 mph 25% 0 in
12:32 68.0 °F 31.8 °F 23.50 in NW 3.2 mph -999.0 mph 26% 0 in
12:48 68.4 °F 33.1 °F 23.50 in NW 3.7 mph -999.0 mph 27% 0 in
13:03 68.7 °F 32.4 °F 23.49 in NW 4.7 mph -999.0 mph 26% 0 in
13:19 68.7 °F 32.4 °F 23.49 in WNW 4.7 mph -999.0 mph 26% 0 in
13:34 68.5 °F 31.3 °F 23.48 in NNW 6.8 mph -999.0 mph 25% 0 in
13:49 68.5 °F 30.3 °F 23.48 in West 4.2 mph -999.0 mph 24% 0 in
14:04 67.5 °F 30.4 °F 23.48 in WNW 2.7 mph -999.0 mph 25% 0 in
14:19 66.6 °F 32.5 °F 23.48 in NW 2.7 mph -999.0 mph 28% 0 in
14:35 65.5 °F 32.4 °F 23.47 in NNW 2.7 mph -999.0 mph 29% 0 in
14:50 65.5 °F 32.4 °F 23.47 in WNW 4.7 mph -999.0 mph 29% 0 in
15:05 65.1 °F 31.2 °F 23.47 in West 1.1 mph -999.0 mph 28% 0 in
15:20 64.4 °F 32.3 °F 23.47 in West 2.7 mph -999.0 mph 30% 0 in
15:35 63.5 °F 31.5 °F 23.47 in NNW 2.7 mph -999.0 mph 30% 0 in
15:51 63.3 °F 32.9 °F 23.47 in WSW 2.2 mph -999.0 mph 32% 0 in
16:06 62.1 °F 33.4 °F 23.47 in SW 2.7 mph -999.0 mph 34% 0 in
16:21 61.3 °F 32.7 °F 23.47 in NW 4.2 mph -999.0 mph 34% 0 in
16:36 60.8 °F 30.7 °F 23.47 in WNW 2.7 mph -999.0 mph 32% 0 in
16:51 60.3 °F 31.1 °F 23.47 in WNW 2.7 mph -999.0 mph 33% 0 in
17:07 59.7 °F 31.3 °F 23.47 in South 1.7 mph -999.0 mph 34% 0 in
17:22 58.6 °F 33.1 °F 23.47 in Calm   -999.0 mph 38% 0 in
17:37 57.4 °F 33.9 °F 23.46 in Calm   -999.0 mph 41% 0 in
17:52 56.1 °F 32.7 °F 23.46 in Calm   -999.0 mph 41% 0 in
18:08 54.7 °F 32.0 °F 23.46 in Calm   -999.0 mph 42% 0 in
18:23 53.2 °F 31.3 °F 23.46 in Calm   -999.0 mph 43% 0 in
18:38 52.5 °F 28.2 °F 23.46 in Calm   -999.0 mph 39% 0 in
18:53 51.8 °F 27.6 °F 23.46 in Calm   -999.0 mph 39% 0 in
19:08 50.4 °F 27.6 °F 23.46 in Calm   -999.0 mph 41% 0 in
19:24 49.5 °F 27.3 °F 23.46 in Calm   -999.0 mph 42% 0 in
19:39 48.6 °F 25.4 °F 23.46 in Calm   -999.0 mph 40% 0 in
19:54 47.8 °F 27.5 °F 23.46 in Calm   -999.0 mph 45% 0 in
20:09 47.1 °F 30.4 °F 23.45 in Calm   -999.0 mph 52% 0 in
20:24 46.6 °F 28.5 °F 23.45 in Calm   -999.0 mph 49% 0 in
20:40 46.0 °F 29.8 °F 23.45 in Calm   -999.0 mph 53% 0 in
20:55 45.9 °F 26.3 °F 23.45 in Calm   -999.0 mph 46% 0 in
21:10 45.9 °F 25.7 °F 23.45 in Calm   -999.0 mph 45% 0 in
21:25 46.0 °F 25.8 °F 23.45 in Calm   -999.0 mph 45% 0 in
21:40 46.0 °F 26.9 °F 23.45 in Calm   -999.0 mph 47% 0 in
21:56 46.4 °F 29.2 °F 23.45 in Calm   -999.0 mph 51% 0 in
22:11 46.2 °F 29.1 °F 23.45 in Calm   -999.0 mph 51% 0 in
22:26 46.0 °F 29.4 °F 23.45 in Calm   -999.0 mph 52% 0 in
22:41 45.7 °F 29.5 °F 23.45 in Calm   -999.0 mph 53% 0 in
22:56 45.9 °F 32.0 °F 23.45 in Calm   -999.0 mph 58% 0 in
23:12 45.9 °F 29.3 °F 23.44 in Calm   -999.0 mph 52% 0 in
23:27 45.3 °F 27.7 °F 23.44 in Calm   -999.0 mph 50% 0 in
23:42 44.4 °F 28.3 °F 23.44 in Calm   -999.0 mph 53% 0 in
23:57 43.9 °F 28.8 °F 23.43 in Calm   -999.0 mph 55% 0 in
Big Bear CA Weather